sensor_id;sensor_type;location;lat;lon;timestamp;P1;durP1;ratioP1;P2;durP2;ratioP2
41255;SDS011;26989;45.524;10.938;2023-07-16T00:00:46;11.38;;;6.70;;
41255;SDS011;26989;45.524;10.938;2023-07-16T00:03:16;10.80;;;7.50;;
41255;SDS011;26989;45.524;10.938;2023-07-16T00:05:43;10.02;;;7.22;;
41255;SDS011;26989;45.524;10.938;2023-07-16T00:08:09;9.50;;;6.40;;
41255;SDS011;26989;45.524;10.938;2023-07-16T00:10:37;11.32;;;6.85;;
41255;SDS011;26989;45.524;10.938;2023-07-16T00:13:04;10.73;;;7.22;;
41255;SDS011;26989;45.524;10.938;2023-07-16T00:15:31;9.93;;;6.90;;
41255;SDS011;26989;45.524;10.938;2023-07-16T00:17:58;13.27;;;6.82;;
41255;SDS011;26989;45.524;10.938;2023-07-16T00:20:25;11.88;;;7.05;;
41255;SDS011;26989;45.524;10.938;2023-07-16T00:22:52;9.45;;;6.85;;
41255;SDS011;26989;45.524;10.938;2023-07-16T00:25:20;13.00;;;6.97;;
41255;SDS011;26989;45.524;10.938;2023-07-16T00:27:47;10.82;;;7.00;;
41255;SDS011;26989;45.524;10.938;2023-07-16T00:30:14;10.90;;;6.68;;
41255;SDS011;26989;45.524;10.938;2023-07-16T00:32:40;13.35;;;7.65;;
41255;SDS011;26989;45.524;10.938;2023-07-16T00:35:08;9.93;;;6.82;;
41255;SDS011;26989;45.524;10.938;2023-07-16T00:37:35;9.13;;;6.88;;
41255;SDS011;26989;45.524;10.938;2023-07-16T00:40:02;12.40;;;6.55;;
41255;SDS011;26989;45.524;10.938;2023-07-16T00:42:29;10.85;;;6.45;;
41255;SDS011;26989;45.524;10.938;2023-07-16T00:44:56;12.88;;;6.60;;
41255;SDS011;26989;45.524;10.938;2023-07-16T00:47:23;12.98;;;6.90;;
41255;SDS011;26989;45.524;10.938;2023-07-16T00:49:50;10.55;;;6.63;;
41255;SDS011;26989;45.524;10.938;2023-07-16T00:52:17;10.55;;;6.93;;
41255;SDS011;26989;45.524;10.938;2023-07-16T00:54:47;9.95;;;6.80;;
41255;SDS011;26989;45.524;10.938;2023-07-16T00:57:14;10.93;;;6.35;;
41255;SDS011;26989;45.524;10.938;2023-07-16T00:59:42;12.15;;;7.00;;
41255;SDS011;26989;45.524;10.938;2023-07-16T01:02:09;10.63;;;6.55;;
41255;SDS011;26989;45.524;10.938;2023-07-16T01:04:36;11.45;;;6.82;;
41255;SDS011;26989;45.524;10.938;2023-07-16T01:07:04;9.35;;;6.40;;
41255;SDS011;26989;45.524;10.938;2023-07-16T01:09:34;11.57;;;6.72;;
41255;SDS011;26989;45.524;10.938;2023-07-16T01:12:05;9.17;;;6.30;;
41255;SDS011;26989;45.524;10.938;2023-07-16T01:14:32;10.50;;;6.03;;
41255;SDS011;26989;45.524;10.938;2023-07-16T01:17:06;12.35;;;6.15;;
41255;SDS011;26989;45.524;10.938;2023-07-16T01:19:34;11.38;;;6.53;;
41255;SDS011;26989;45.524;10.938;2023-07-16T01:22:10;10.10;;;5.93;;
41255;SDS011;26989;45.524;10.938;2023-07-16T01:25:00;8.88;;;6.22;;
41255;SDS011;26989;45.524;10.938;2023-07-16T01:27:50;11.15;;;6.30;;
41255;SDS011;26989;45.524;10.938;2023-07-16T01:30:18;10.30;;;6.65;;
41255;SDS011;26989;45.524;10.938;2023-07-16T01:32:46;10.32;;;6.57;;
41255;SDS011;26989;45.524;10.938;2023-07-16T01:35:14;10.82;;;7.10;;
41255;SDS011;26989;45.524;10.938;2023-07-16T01:37:41;12.93;;;6.57;;
41255;SDS011;26989;45.524;10.938;2023-07-16T01:40:08;11.13;;;6.72;;
41255;SDS011;26989;45.524;10.938;2023-07-16T01:42:36;9.32;;;6.53;;
41255;SDS011;26989;45.524;10.938;2023-07-16T01:45:03;8.90;;;6.53;;
41255;SDS011;26989;45.524;10.938;2023-07-16T01:50:26;8.70;;;6.65;;
41255;SDS011;26989;45.524;10.938;2023-07-16T01:52:53;10.85;;;6.43;;
41255;SDS011;26989;45.524;10.938;2023-07-16T01:55:20;11.32;;;7.05;;
41255;SDS011;26989;45.524;10.938;2023-07-16T01:57:47;10.35;;;6.75;;
41255;SDS011;26989;45.524;10.938;2023-07-16T02:00:14;11.05;;;6.88;;
41255;SDS011;26989;45.524;10.938;2023-07-16T02:02:41;14.93;;;7.28;;
41255;SDS011;26989;45.524;10.938;2023-07-16T02:05:08;8.88;;;6.93;;
41255;SDS011;26989;45.524;10.938;2023-07-16T02:07:35;9.80;;;6.68;;
41255;SDS011;26989;45.524;10.938;2023-07-16T02:10:02;10.77;;;6.82;;
41255;SDS011;26989;45.524;10.938;2023-07-16T02:12:29;12.98;;;6.80;;
41255;SDS011;26989;45.524;10.938;2023-07-16T02:14:56;11.32;;;6.80;;
41255;SDS011;26989;45.524;10.938;2023-07-16T02:17:23;11.43;;;7.28;;
41255;SDS011;26989;45.524;10.938;2023-07-16T02:19:50;8.68;;;6.65;;
41255;SDS011;26989;45.524;10.938;2023-07-16T02:22:17;10.82;;;7.30;;
41255;SDS011;26989;45.524;10.938;2023-07-16T02:24:44;11.55;;;6.88;;
41255;SDS011;26989;45.524;10.938;2023-07-16T02:27:11;12.05;;;7.60;;
41255;SDS011;26989;45.524;10.938;2023-07-16T02:29:38;9.73;;;7.45;;
41255;SDS011;26989;45.524;10.938;2023-07-16T02:32:05;14.13;;;7.65;;
41255;SDS011;26989;45.524;10.938;2023-07-16T02:34:32;11.25;;;7.38;;
41255;SDS011;26989;45.524;10.938;2023-07-16T02:36:59;8.60;;;7.00;;
41255;SDS011;26989;45.524;10.938;2023-07-16T02:39:26;12.45;;;7.00;;
41255;SDS011;26989;45.524;10.938;2023-07-16T02:41:53;13.23;;;7.28;;
41255;SDS011;26989;45.524;10.938;2023-07-16T02:44:20;12.63;;;7.57;;
41255;SDS011;26989;45.524;10.938;2023-07-16T02:46:46;11.80;;;7.30;;
41255;SDS011;26989;45.524;10.938;2023-07-16T02:49:13;10.68;;;7.05;;
41255;SDS011;26989;45.524;10.938;2023-07-16T02:51:40;14.93;;;7.07;;
41255;SDS011;26989;45.524;10.938;2023-07-16T02:54:07;19.42;;;7.82;;
41255;SDS011;26989;45.524;10.938;2023-07-16T02:56:34;11.45;;;7.50;;
41255;SDS011;26989;45.524;10.938;2023-07-16T02:59:01;10.75;;;6.70;;
41255;SDS011;26989;45.524;10.938;2023-07-16T03:01:27;9.70;;;7.28;;
41255;SDS011;26989;45.524;10.938;2023-07-16T03:03:54;12.52;;;7.55;;
41255;SDS011;26989;45.524;10.938;2023-07-16T03:06:21;12.38;;;7.40;;
41255;SDS011;26989;45.524;10.938;2023-07-16T03:08:48;11.05;;;7.30;;
41255;SDS011;26989;45.524;10.938;2023-07-16T03:11:15;12.48;;;7.50;;
41255;SDS011;26989;45.524;10.938;2023-07-16T03:13:42;17.65;;;7.88;;
41255;SDS011;26989;45.524;10.938;2023-07-16T03:16:09;12.32;;;7.15;;
41255;SDS011;26989;45.524;10.938;2023-07-16T03:18:36;9.98;;;7.72;;
41255;SDS011;26989;45.524;10.938;2023-07-16T03:21:03;11.63;;;7.88;;
41255;SDS011;26989;45.524;10.938;2023-07-16T03:23:30;13.73;;;7.55;;
41255;SDS011;26989;45.524;10.938;2023-07-16T03:25:57;11.05;;;7.22;;
41255;SDS011;26989;45.524;10.938;2023-07-16T03:28:24;10.68;;;7.28;;
41255;SDS011;26989;45.524;10.938;2023-07-16T03:30:51;7.82;;;6.82;;
41255;SDS011;26989;45.524;10.938;2023-07-16T03:33:19;10.82;;;7.60;;
41255;SDS011;26989;45.524;10.938;2023-07-16T03:35:47;11.38;;;7.60;;
41255;SDS011;26989;45.524;10.938;2023-07-16T03:38:15;15.00;;;7.53;;
41255;SDS011;26989;45.524;10.938;2023-07-16T03:40:42;12.80;;;7.50;;
41255;SDS011;26989;45.524;10.938;2023-07-16T03:43:12;13.15;;;7.53;;
41255;SDS011;26989;45.524;10.938;2023-07-16T03:45:39;11.15;;;7.78;;
41255;SDS011;26989;45.524;10.938;2023-07-16T03:48:06;8.60;;;7.10;;
41255;SDS011;26989;45.524;10.938;2023-07-16T03:50:33;10.20;;;7.18;;
41255;SDS011;26989;45.524;10.938;2023-07-16T03:53:01;12.27;;;7.90;;
41255;SDS011;26989;45.524;10.938;2023-07-16T03:55:29;11.00;;;7.85;;
41255;SDS011;26989;45.524;10.938;2023-07-16T03:57:56;13.80;;;8.18;;
41255;SDS011;26989;45.524;10.938;2023-07-16T04:00:24;12.85;;;7.90;;
41255;SDS011;26989;45.524;10.938;2023-07-16T04:02:50;11.75;;;7.40;;
41255;SDS011;26989;45.524;10.938;2023-07-16T04:05:18;14.52;;;7.97;;
41255;SDS011;26989;45.524;10.938;2023-07-16T04:07:49;8.57;;;6.82;;
41255;SDS011;26989;45.524;10.938;2023-07-16T04:10:16;11.80;;;7.47;;
41255;SDS011;26989;45.524;10.938;2023-07-16T04:12:44;10.35;;;7.40;;
41255;SDS011;26989;45.524;10.938;2023-07-16T04:15:11;10.68;;;7.78;;
41255;SDS011;26989;45.524;10.938;2023-07-16T04:17:38;12.57;;;8.02;;
41255;SDS011;26989;45.524;10.938;2023-07-16T04:20:05;11.20;;;7.60;;
41255;SDS011;26989;45.524;10.938;2023-07-16T04:22:36;11.27;;;7.45;;
41255;SDS011;26989;45.524;10.938;2023-07-16T04:25:03;14.25;;;8.52;;
41255;SDS011;26989;45.524;10.938;2023-07-16T04:27:30;10.40;;;7.53;;
41255;SDS011;26989;45.524;10.938;2023-07-16T04:29:57;13.25;;;8.55;;
41255;SDS011;26989;45.524;10.938;2023-07-16T04:32:24;10.43;;;8.02;;
41255;SDS011;26989;45.524;10.938;2023-07-16T04:34:51;8.38;;;7.30;;
41255;SDS011;26989;45.524;10.938;2023-07-16T04:37:18;11.98;;;7.53;;
41255;SDS011;26989;45.524;10.938;2023-07-16T04:39:45;14.05;;;7.60;;
41255;SDS011;26989;45.524;10.938;2023-07-16T04:42:12;10.85;;;7.25;;
41255;SDS011;26989;45.524;10.938;2023-07-16T04:44:39;13.35;;;7.70;;
41255;SDS011;26989;45.524;10.938;2023-07-16T04:47:06;12.10;;;7.50;;
41255;SDS011;26989;45.524;10.938;2023-07-16T04:49:34;12.90;;;6.65;;
41255;SDS011;26989;45.524;10.938;2023-07-16T04:52:02;15.15;;;6.65;;
41255;SDS011;26989;45.524;10.938;2023-07-16T04:54:34;12.70;;;6.55;;
41255;SDS011;26989;45.524;10.938;2023-07-16T04:57:02;10.85;;;6.57;;
41255;SDS011;26989;45.524;10.938;2023-07-16T04:59:29;8.35;;;6.45;;
41255;SDS011;26989;45.524;10.938;2023-07-16T05:01:56;13.00;;;7.03;;
41255;SDS011;26989;45.524;10.938;2023-07-16T05:04:23;10.95;;;6.15;;
41255;SDS011;26989;45.524;10.938;2023-07-16T05:06:51;9.60;;;5.85;;
41255;SDS011;26989;45.524;10.938;2023-07-16T05:09:18;13.07;;;6.13;;
41255;SDS011;26989;45.524;10.938;2023-07-16T05:11:47;9.50;;;5.70;;
41255;SDS011;26989;45.524;10.938;2023-07-16T05:14:14;12.70;;;5.95;;
41255;SDS011;26989;45.524;10.938;2023-07-16T05:16:41;10.77;;;6.03;;
41255;SDS011;26989;45.524;10.938;2023-07-16T05:19:08;7.00;;;5.32;;
41255;SDS011;26989;45.524;10.938;2023-07-16T05:21:35;11.40;;;5.97;;
41255;SDS011;26989;45.524;10.938;2023-07-16T05:24:02;11.07;;;5.72;;
41255;SDS011;26989;45.524;10.938;2023-07-16T05:26:29;9.32;;;6.10;;
41255;SDS011;26989;45.524;10.938;2023-07-16T05:28:56;9.38;;;6.07;;
41255;SDS011;26989;45.524;10.938;2023-07-16T05:31:23;9.18;;;5.35;;
41255;SDS011;26989;45.524;10.938;2023-07-16T05:33:50;9.52;;;5.63;;
41255;SDS011;26989;45.524;10.938;2023-07-16T05:36:17;9.07;;;5.90;;
41255;SDS011;26989;45.524;10.938;2023-07-16T05:38:44;9.43;;;5.53;;
41255;SDS011;26989;45.524;10.938;2023-07-16T05:41:11;11.60;;;5.50;;
41255;SDS011;26989;45.524;10.938;2023-07-16T05:43:37;10.63;;;5.10;;
41255;SDS011;26989;45.524;10.938;2023-07-16T05:46:04;9.57;;;5.15;;
41255;SDS011;26989;45.524;10.938;2023-07-16T05:48:31;10.82;;;4.80;;
41255;SDS011;26989;45.524;10.938;2023-07-16T05:50:58;9.35;;;4.82;;
41255;SDS011;26989;45.524;10.938;2023-07-16T05:53:25;12.60;;;5.28;;
41255;SDS011;26989;45.524;10.938;2023-07-16T05:55:52;8.80;;;4.38;;
41255;SDS011;26989;45.524;10.938;2023-07-16T05:58:19;9.02;;;4.38;;
41255;SDS011;26989;45.524;10.938;2023-07-16T06:00:46;9.73;;;4.50;;
41255;SDS011;26989;45.524;10.938;2023-07-16T06:03:13;10.43;;;4.70;;
41255;SDS011;26989;45.524;10.938;2023-07-16T06:05:43;11.65;;;4.93;;
41255;SDS011;26989;45.524;10.938;2023-07-16T06:08:09;6.55;;;4.13;;
41255;SDS011;26989;45.524;10.938;2023-07-16T06:10:37;9.57;;;4.15;;
41255;SDS011;26989;45.524;10.938;2023-07-16T06:13:05;8.98;;;4.43;;
41255;SDS011;26989;45.524;10.938;2023-07-16T06:15:32;9.32;;;5.03;;
41255;SDS011;26989;45.524;10.938;2023-07-16T06:17:58;9.40;;;4.80;;
41255;SDS011;26989;45.524;10.938;2023-07-16T06:20:25;8.10;;;4.45;;
41255;SDS011;26989;45.524;10.938;2023-07-16T06:22:52;12.98;;;4.15;;
41255;SDS011;26989;45.524;10.938;2023-07-16T06:25:19;11.30;;;4.30;;
41255;SDS011;26989;45.524;10.938;2023-07-16T06:27:47;9.88;;;4.30;;
41255;SDS011;26989;45.524;10.938;2023-07-16T06:30:14;11.02;;;5.10;;
41255;SDS011;26989;45.524;10.938;2023-07-16T06:32:40;30.48;;;7.50;;
41255;SDS011;26989;45.524;10.938;2023-07-16T06:35:08;8.38;;;4.63;;
41255;SDS011;26989;45.524;10.938;2023-07-16T06:37:35;10.10;;;4.65;;
41255;SDS011;26989;45.524;10.938;2023-07-16T06:40:02;6.72;;;4.50;;
41255;SDS011;26989;45.524;10.938;2023-07-16T06:42:30;8.73;;;4.75;;
41255;SDS011;26989;45.524;10.938;2023-07-16T06:44:56;8.57;;;4.30;;
41255;SDS011;26989;45.524;10.938;2023-07-16T06:47:23;9.32;;;4.95;;
41255;SDS011;26989;45.524;10.938;2023-07-16T06:49:50;13.20;;;5.00;;
41255;SDS011;26989;45.524;10.938;2023-07-16T06:52:21;10.70;;;4.75;;
41255;SDS011;26989;45.524;10.938;2023-07-16T06:54:49;9.35;;;4.70;;
41255;SDS011;26989;45.524;10.938;2023-07-16T06:57:16;10.73;;;4.75;;
41255;SDS011;26989;45.524;10.938;2023-07-16T06:59:42;11.40;;;5.38;;
41255;SDS011;26989;45.524;10.938;2023-07-16T07:02:10;9.98;;;5.00;;
41255;SDS011;26989;45.524;10.938;2023-07-16T07:04:36;9.38;;;4.53;;
41255;SDS011;26989;45.524;10.938;2023-07-16T07:07:03;10.75;;;4.90;;
41255;SDS011;26989;45.524;10.938;2023-07-16T07:09:31;11.63;;;5.13;;
41255;SDS011;26989;45.524;10.938;2023-07-16T07:11:58;8.38;;;5.57;;
41255;SDS011;26989;45.524;10.938;2023-07-16T07:14:25;8.75;;;5.50;;
41255;SDS011;26989;45.524;10.938;2023-07-16T07:16:51;9.90;;;5.85;;
41255;SDS011;26989;45.524;10.938;2023-07-16T07:19:18;9.30;;;5.53;;
41255;SDS011;26989;45.524;10.938;2023-07-16T07:21:45;11.85;;;6.20;;
41255;SDS011;26989;45.524;10.938;2023-07-16T07:24:12;11.30;;;5.70;;
41255;SDS011;26989;45.524;10.938;2023-07-16T07:26:39;10.02;;;5.47;;
41255;SDS011;26989;45.524;10.938;2023-07-16T07:29:06;10.60;;;4.57;;
41255;SDS011;26989;45.524;10.938;2023-07-16T07:31:34;12.50;;;6.05;;
41255;SDS011;26989;45.524;10.938;2023-07-16T07:34:01;10.52;;;6.35;;
41255;SDS011;26989;45.524;10.938;2023-07-16T07:36:28;12.07;;;5.97;;
41255;SDS011;26989;45.524;10.938;2023-07-16T07:38:55;13.98;;;6.30;;
41255;SDS011;26989;45.524;10.938;2023-07-16T07:41:22;12.50;;;6.97;;
41255;SDS011;26989;45.524;10.938;2023-07-16T07:43:49;10.93;;;6.35;;
41255;SDS011;26989;45.524;10.938;2023-07-16T07:46:15;13.50;;;5.97;;
41255;SDS011;26989;45.524;10.938;2023-07-16T07:48:43;13.02;;;6.53;;
41255;SDS011;26989;45.524;10.938;2023-07-16T07:51:10;12.43;;;6.50;;
41255;SDS011;26989;45.524;10.938;2023-07-16T07:53:37;13.95;;;6.32;;
41255;SDS011;26989;45.524;10.938;2023-07-16T07:56:03;10.07;;;6.25;;
41255;SDS011;26989;45.524;10.938;2023-07-16T07:58:30;14.02;;;6.75;;
41255;SDS011;26989;45.524;10.938;2023-07-16T08:01:02;9.30;;;5.75;;
41255;SDS011;26989;45.524;10.938;2023-07-16T08:03:33;13.10;;;6.18;;
41255;SDS011;26989;45.524;10.938;2023-07-16T08:06:01;12.00;;;6.47;;
41255;SDS011;26989;45.524;10.938;2023-07-16T08:08:28;10.13;;;6.38;;
41255;SDS011;26989;45.524;10.938;2023-07-16T08:10:55;12.10;;;6.93;;
41255;SDS011;26989;45.524;10.938;2023-07-16T08:13:22;16.70;;;7.65;;
41255;SDS011;26989;45.524;10.938;2023-07-16T08:15:49;11.40;;;6.68;;
41255;SDS011;26989;45.524;10.938;2023-07-16T08:18:15;11.20;;;6.65;;
41255;SDS011;26989;45.524;10.938;2023-07-16T08:20:42;14.07;;;7.20;;
41255;SDS011;26989;45.524;10.938;2023-07-16T08:23:09;15.50;;;7.28;;
41255;SDS011;26989;45.524;10.938;2023-07-16T08:25:37;13.98;;;8.15;;
41255;SDS011;26989;45.524;10.938;2023-07-16T08:28:03;11.57;;;6.88;;
41255;SDS011;26989;45.524;10.938;2023-07-16T08:30:32;27.50;;;11.02;;
41255;SDS011;26989;45.524;10.938;2023-07-16T08:32:59;13.43;;;7.38;;
41255;SDS011;26989;45.524;10.938;2023-07-16T08:35:26;14.98;;;7.40;;
41255;SDS011;26989;45.524;10.938;2023-07-16T08:37:53;16.08;;;7.45;;
41255;SDS011;26989;45.524;10.938;2023-07-16T08:40:20;13.82;;;7.68;;
41255;SDS011;26989;45.524;10.938;2023-07-16T08:42:47;14.32;;;8.50;;
41255;SDS011;26989;45.524;10.938;2023-07-16T08:45:15;15.60;;;8.30;;
41255;SDS011;26989;45.524;10.938;2023-07-16T08:47:45;13.55;;;6.88;;
41255;SDS011;26989;45.524;10.938;2023-07-16T08:50:12;11.15;;;6.15;;
41255;SDS011;26989;45.524;10.938;2023-07-16T08:52:40;13.32;;;7.32;;
41255;SDS011;26989;45.524;10.938;2023-07-16T08:55:07;10.80;;;7.05;;
41255;SDS011;26989;45.524;10.938;2023-07-16T08:57:34;12.25;;;7.05;;
41255;SDS011;26989;45.524;10.938;2023-07-16T09:00:02;11.82;;;6.65;;
41255;SDS011;26989;45.524;10.938;2023-07-16T09:02:31;9.82;;;7.20;;
41255;SDS011;26989;45.524;10.938;2023-07-16T09:04:59;12.82;;;6.88;;
41255;SDS011;26989;45.524;10.938;2023-07-16T09:07:27;10.05;;;6.45;;
41255;SDS011;26989;45.524;10.938;2023-07-16T09:09:54;11.77;;;6.82;;
41255;SDS011;26989;45.524;10.938;2023-07-16T09:12:24;13.55;;;7.00;;
41255;SDS011;26989;45.524;10.938;2023-07-16T09:14:52;11.70;;;6.80;;
41255;SDS011;26989;45.524;10.938;2023-07-16T09:17:21;11.88;;;6.25;;
41255;SDS011;26989;45.524;10.938;2023-07-16T09:19:53;12.93;;;6.30;;
41255;SDS011;26989;45.524;10.938;2023-07-16T09:22:19;11.63;;;7.13;;
41255;SDS011;26989;45.524;10.938;2023-07-16T09:24:47;13.65;;;6.93;;
41255;SDS011;26989;45.524;10.938;2023-07-16T09:27:14;12.73;;;6.53;;
41255;SDS011;26989;45.524;10.938;2023-07-16T09:29:41;13.48;;;5.75;;
41255;SDS011;26989;45.524;10.938;2023-07-16T09:32:08;8.27;;;5.40;;
41255;SDS011;26989;45.524;10.938;2023-07-16T09:34:36;14.48;;;5.50;;
41255;SDS011;26989;45.524;10.938;2023-07-16T09:37:04;10.55;;;5.82;;
41255;SDS011;26989;45.524;10.938;2023-07-16T09:39:32;12.98;;;6.45;;
41255;SDS011;26989;45.524;10.938;2023-07-16T09:42:00;10.48;;;5.55;;
41255;SDS011;26989;45.524;10.938;2023-07-16T09:44:29;12.93;;;6.22;;
41255;SDS011;26989;45.524;10.938;2023-07-16T09:46:56;10.60;;;5.57;;
41255;SDS011;26989;45.524;10.938;2023-07-16T09:49:23;13.73;;;5.70;;
41255;SDS011;26989;45.524;10.938;2023-07-16T09:51:54;12.95;;;5.25;;
41255;SDS011;26989;45.524;10.938;2023-07-16T09:54:23;14.38;;;5.85;;
41255;SDS011;26989;45.524;10.938;2023-07-16T09:56:54;10.95;;;5.90;;
41255;SDS011;26989;45.524;10.938;2023-07-16T09:59:26;10.93;;;5.65;;
41255;SDS011;26989;45.524;10.938;2023-07-16T10:01:55;11.52;;;6.28;;
41255;SDS011;26989;45.524;10.938;2023-07-16T10:04:23;11.65;;;5.40;;
41255;SDS011;26989;45.524;10.938;2023-07-16T10:09:42;8.82;;;5.88;;
41255;SDS011;26989;45.524;10.938;2023-07-16T10:12:19;10.77;;;5.25;;
41255;SDS011;26989;45.524;10.938;2023-07-16T10:14:47;13.52;;;5.78;;
41255;SDS011;26989;45.524;10.938;2023-07-16T10:17:22;15.32;;;5.95;;
41255;SDS011;26989;45.524;10.938;2023-07-16T10:27:36;11.10;;;5.70;;
41255;SDS011;26989;45.524;10.938;2023-07-16T10:30:04;14.05;;;5.88;;
41255;SDS011;26989;45.524;10.938;2023-07-16T10:32:32;8.50;;;5.35;;
41255;SDS011;26989;45.524;10.938;2023-07-16T10:34:59;10.10;;;5.25;;
41255;SDS011;26989;45.524;10.938;2023-07-16T10:37:27;8.68;;;5.38;;
41255;SDS011;26989;45.524;10.938;2023-07-16T10:39:55;12.60;;;5.63;;
41255;SDS011;26989;45.524;10.938;2023-07-16T10:42:24;19.73;;;8.07;;
41255;SDS011;26989;45.524;10.938;2023-07-16T10:44:52;12.75;;;6.00;;
41255;SDS011;26989;45.524;10.938;2023-07-16T10:47:24;9.27;;;4.93;;
41255;SDS011;26989;45.524;10.938;2023-07-16T10:49:58;11.20;;;4.75;;
41255;SDS011;26989;45.524;10.938;2023-07-16T10:52:26;10.75;;;4.78;;
41255;SDS011;26989;45.524;10.938;2023-07-16T10:54:53;10.85;;;4.15;;
41255;SDS011;26989;45.524;10.938;2023-07-16T10:57:21;12.80;;;5.57;;
41255;SDS011;26989;45.524;10.938;2023-07-16T10:59:50;10.38;;;4.65;;
41255;SDS011;26989;45.524;10.938;2023-07-16T11:02:18;9.10;;;4.50;;
41255;SDS011;26989;45.524;10.938;2023-07-16T11:04:46;9.18;;;4.68;;
41255;SDS011;26989;45.524;10.938;2023-07-16T11:07:14;7.53;;;4.40;;
41255;SDS011;26989;45.524;10.938;2023-07-16T11:09:49;6.28;;;3.85;;
41255;SDS011;26989;45.524;10.938;2023-07-16T11:12:18;8.52;;;3.65;;
41255;SDS011;26989;45.524;10.938;2023-07-16T11:14:47;7.22;;;4.20;;
41255;SDS011;26989;45.524;10.938;2023-07-16T11:17:16;8.82;;;4.18;;
41255;SDS011;26989;45.524;10.938;2023-07-16T11:19:47;10.45;;;3.20;;
41255;SDS011;26989;45.524;10.938;2023-07-16T11:22:15;7.65;;;3.70;;
41255;SDS011;26989;45.524;10.938;2023-07-16T11:24:43;7.38;;;3.95;;
41255;SDS011;26989;45.524;10.938;2023-07-16T11:29:49;10.00;;;4.15;;
41255;SDS011;26989;45.524;10.938;2023-07-16T11:35:02;10.75;;;4.13;;
41255;SDS011;26989;45.524;10.938;2023-07-16T11:37:34;8.30;;;4.70;;
41255;SDS011;26989;45.524;10.938;2023-07-16T11:40:03;8.85;;;5.30;;
41255;SDS011;26989;45.524;10.938;2023-07-16T11:42:33;10.98;;;4.63;;
41255;SDS011;26989;45.524;10.938;2023-07-16T11:45:02;10.00;;;5.07;;
41255;SDS011;26989;45.524;10.938;2023-07-16T11:47:30;8.20;;;3.70;;
41255;SDS011;26989;45.524;10.938;2023-07-16T11:49:59;5.43;;;4.22;;
41255;SDS011;26989;45.524;10.938;2023-07-16T11:52:26;8.88;;;3.75;;
41255;SDS011;26989;45.524;10.938;2023-07-16T11:54:56;5.72;;;4.25;;
41255;SDS011;26989;45.524;10.938;2023-07-16T11:57:26;8.25;;;4.78;;
41255;SDS011;26989;45.524;10.938;2023-07-16T11:59:53;10.25;;;4.90;;
41255;SDS011;26989;45.524;10.938;2023-07-16T12:02:20;7.15;;;4.40;;
41255;SDS011;26989;45.524;10.938;2023-07-16T12:04:48;7.60;;;4.13;;
41255;SDS011;26989;45.524;10.938;2023-07-16T12:07:15;5.47;;;4.07;;
41255;SDS011;26989;45.524;10.938;2023-07-16T12:09:56;9.90;;;4.50;;
41255;SDS011;26989;45.524;10.938;2023-07-16T12:12:23;8.13;;;4.45;;
41255;SDS011;26989;45.524;10.938;2023-07-16T12:14:50;7.80;;;4.90;;
41255;SDS011;26989;45.524;10.938;2023-07-16T12:17:17;8.77;;;4.50;;
41255;SDS011;26989;45.524;10.938;2023-07-16T12:19:44;7.88;;;4.07;;
41255;SDS011;26989;45.524;10.938;2023-07-16T12:22:11;7.70;;;4.20;;
41255;SDS011;26989;45.524;10.938;2023-07-16T12:24:40;9.43;;;4.20;;
41255;SDS011;26989;45.524;10.938;2023-07-16T12:27:06;11.45;;;4.72;;
41255;SDS011;26989;45.524;10.938;2023-07-16T12:29:33;9.73;;;4.82;;
41255;SDS011;26989;45.524;10.938;2023-07-16T12:32:01;11.15;;;4.80;;
41255;SDS011;26989;45.524;10.938;2023-07-16T12:34:28;9.63;;;4.55;;
41255;SDS011;26989;45.524;10.938;2023-07-16T12:36:54;8.38;;;4.60;;
41255;SDS011;26989;45.524;10.938;2023-07-16T12:39:22;7.75;;;4.43;;
41255;SDS011;26989;45.524;10.938;2023-07-16T12:41:49;8.05;;;4.65;;
41255;SDS011;26989;45.524;10.938;2023-07-16T12:44:16;8.35;;;4.82;;
41255;SDS011;26989;45.524;10.938;2023-07-16T12:46:43;11.10;;;4.60;;
41255;SDS011;26989;45.524;10.938;2023-07-16T12:49:10;8.65;;;4.43;;
41255;SDS011;26989;45.524;10.938;2023-07-16T12:51:37;8.20;;;4.93;;
41255;SDS011;26989;45.524;10.938;2023-07-16T12:54:03;7.63;;;4.15;;
41255;SDS011;26989;45.524;10.938;2023-07-16T12:56:30;9.35;;;4.50;;
41255;SDS011;26989;45.524;10.938;2023-07-16T12:58:58;5.85;;;4.15;;
41255;SDS011;26989;45.524;10.938;2023-07-16T13:01:25;7.03;;;3.50;;
41255;SDS011;26989;45.524;10.938;2023-07-16T13:03:52;11.77;;;4.72;;
41255;SDS011;26989;45.524;10.938;2023-07-16T13:06:19;7.93;;;4.55;;
41255;SDS011;26989;45.524;10.938;2023-07-16T13:08:46;6.43;;;3.97;;
41255;SDS011;26989;45.524;10.938;2023-07-16T13:11:13;6.82;;;4.30;;
41255;SDS011;26989;45.524;10.938;2023-07-16T13:13:40;16.67;;;6.70;;
41255;SDS011;26989;45.524;10.938;2023-07-16T13:16:08;10.05;;;4.85;;
41255;SDS011;26989;45.524;10.938;2023-07-16T13:18:35;6.57;;;4.20;;
41255;SDS011;26989;45.524;10.938;2023-07-16T13:21:02;8.13;;;4.13;;
41255;SDS011;26989;45.524;10.938;2023-07-16T13:23:29;6.45;;;4.47;;
41255;SDS011;26989;45.524;10.938;2023-07-16T13:25:56;8.10;;;4.70;;
41255;SDS011;26989;45.524;10.938;2023-07-16T13:28:23;11.00;;;4.78;;
41255;SDS011;26989;45.524;10.938;2023-07-16T13:30:50;9.48;;;4.78;;
41255;SDS011;26989;45.524;10.938;2023-07-16T13:33:17;8.93;;;3.95;;
41255;SDS011;26989;45.524;10.938;2023-07-16T13:35:45;5.35;;;3.80;;
41255;SDS011;26989;45.524;10.938;2023-07-16T13:38:12;6.00;;;3.53;;
41255;SDS011;26989;45.524;10.938;2023-07-16T13:40:38;8.82;;;4.20;;
41255;SDS011;26989;45.524;10.938;2023-07-16T13:43:05;11.20;;;4.18;;
41255;SDS011;26989;45.524;10.938;2023-07-16T13:45:33;9.82;;;4.07;;
41255;SDS011;26989;45.524;10.938;2023-07-16T13:48:00;7.95;;;4.43;;
41255;SDS011;26989;45.524;10.938;2023-07-16T13:50:27;5.63;;;3.92;;
41255;SDS011;26989;45.524;10.938;2023-07-16T13:52:54;8.90;;;4.13;;
41255;SDS011;26989;45.524;10.938;2023-07-16T13:55:21;7.35;;;3.97;;
41255;SDS011;26989;45.524;10.938;2023-07-16T13:57:48;6.35;;;3.88;;
41255;SDS011;26989;45.524;10.938;2023-07-16T14:00:15;10.00;;;3.92;;
41255;SDS011;26989;45.524;10.938;2023-07-16T14:02:45;9.43;;;4.05;;
41255;SDS011;26989;45.524;10.938;2023-07-16T14:05:12;7.10;;;3.45;;
41255;SDS011;26989;45.524;10.938;2023-07-16T14:07:39;5.80;;;3.80;;
41255;SDS011;26989;45.524;10.938;2023-07-16T14:10:06;7.45;;;4.07;;
41255;SDS011;26989;45.524;10.938;2023-07-16T14:12:34;7.03;;;3.80;;
41255;SDS011;26989;45.524;10.938;2023-07-16T14:15:00;5.82;;;4.00;;
41255;SDS011;26989;45.524;10.938;2023-07-16T14:17:27;6.65;;;3.50;;
41255;SDS011;26989;45.524;10.938;2023-07-16T14:19:54;7.57;;;3.80;;
41255;SDS011;26989;45.524;10.938;2023-07-16T14:22:21;7.53;;;4.00;;
41255;SDS011;26989;45.524;10.938;2023-07-16T14:24:50;7.28;;;3.80;;
41255;SDS011;26989;45.524;10.938;2023-07-16T14:27:17;6.97;;;3.67;;
41255;SDS011;26989;45.524;10.938;2023-07-16T14:29:46;9.52;;;4.78;;
41255;SDS011;26989;45.524;10.938;2023-07-16T14:32:30;10.05;;;4.18;;
41255;SDS011;26989;45.524;10.938;2023-07-16T14:34:58;8.68;;;3.70;;
41255;SDS011;26989;45.524;10.938;2023-07-16T14:37:26;8.45;;;3.83;;
41255;SDS011;26989;45.524;10.938;2023-07-16T14:39:53;6.18;;;3.15;;
41255;SDS011;26989;45.524;10.938;2023-07-16T14:42:20;5.63;;;3.20;;
41255;SDS011;26989;45.524;10.938;2023-07-16T14:44:47;5.97;;;3.60;;
41255;SDS011;26989;45.524;10.938;2023-07-16T14:47:14;6.93;;;3.47;;